EJU47HM LEBL-LFSB
Flight info
| Callsign | EJU47HM |
|---|---|
| Flight time | 1h 23m |
| Altitude | 30000 |
| Route | DALIN DCT PIVUS DCT DIBER/N0457F340 DCT ADITA DCT MAXIR DCT LUSOL DCT BODRU DCT OKTET DCT IRMAR/N0465F300 DCT KINES DCT VANAS DCT MOBLO DCT LAMUR DCT KORED/N0424F240 N871 KONOL/N0390F180 Z59 LUMEL |
| Aircraft | A319/M-SDE3FGHIRWY/LB1 |
Departure
| Time | 2026-05-06 18:16 |
|---|---|
| Airport | Josep Tarradellas Barcelona-El Prat Airport (LEBL) |
Arrival
| Time | 2026-05-06 19:39 |
|---|---|
| Airport | EuroAirport Basel–Mulhouse–Freiburg (LFSB) |
| Time | Latitude | Longitude | Altitude | Speed | Heading |
|---|---|---|---|---|---|
| 2026-05-06 17:42 | 41.30366 | 2.08317 | 21 ft | 0 kts | 306° |
| 2026-05-06 18:02 | 41.30357 | 2.08334 | 22 ft | 2 kts | 318° |
| 2026-05-06 18:02 | 41.30345 | 2.08348 | 22 ft | 2 kts | 320° |
| 2026-05-06 18:03 | 41.30333 | 2.08360 | 22 ft | 2 kts | 337° |
| 2026-05-06 18:03 | 41.30318 | 2.08368 | 22 ft | 2 kts | 337° |
| 2026-05-06 18:03 | 41.30305 | 2.08376 | 21 ft | 2 kts | 337° |
| 2026-05-06 18:03 | 41.30290 | 2.08384 | 21 ft | 2 kts | 337° |
| 2026-05-06 18:04 | 41.30283 | 2.08400 | 20 ft | 2 kts | 245° |
| 2026-05-06 18:04 | 41.30285 | 2.08404 | 23 ft | 0 kts | 247° |
| 2026-05-06 18:07 | 41.30283 | 2.08398 | 20 ft | 2 kts | 247° |
| 2026-05-06 18:07 | 41.30271 | 2.08360 | 20 ft | 6 kts | 247° |
| 2026-05-06 18:07 | 41.30243 | 2.08280 | 19 ft | 20 kts | 245° |
| 2026-05-06 18:08 | 41.30158 | 2.08192 | 19 ft | 14 kts | 158° |
| 2026-05-06 18:08 | 41.30070 | 2.08246 | 19 ft | 14 kts | 155° |
| 2026-05-06 18:08 | 41.30048 | 2.08259 | 18 ft | 1 kts | 156° |
| 2026-05-06 18:08 | 41.30027 | 2.08271 | 18 ft | 4 kts | 156° |
| 2026-05-06 18:09 | 41.29996 | 2.08290 | 19 ft | 5 kts | 156° |
| 2026-05-06 18:09 | 41.29983 | 2.08297 | 19 ft | 0 kts | 156° |
| 2026-05-06 18:11 | 41.29977 | 2.08301 | 21 ft | 5 kts | 156° |
| 2026-05-06 18:11 | 41.29936 | 2.08326 | 22 ft | 9 kts | 156° |
| 2026-05-06 18:11 | 41.29848 | 2.08379 | 25 ft | 20 kts | 155° |
| 2026-05-06 18:12 | 41.29693 | 2.08473 | 16 ft | 28 kts | 156° |
| 2026-05-06 18:12 | 41.29503 | 2.08587 | 15 ft | 33 kts | 155° |
| 2026-05-06 18:12 | 41.29283 | 2.08717 | 18 ft | 36 kts | 156° |
| 2026-05-06 18:12 | 41.29039 | 2.08862 | 15 ft | 41 kts | 155° |
| 2026-05-06 18:13 | 41.28944 | 2.08963 | 16 ft | 10 kts | 91° |
| 2026-05-06 18:13 | 41.28976 | 2.09062 | 17 ft | 13 kts | 67° |
| 2026-05-06 18:13 | 41.29016 | 2.09183 | 17 ft | 16 kts | 65° |
| 2026-05-06 18:13 | 41.29070 | 2.09339 | 17 ft | 21 kts | 65° |
| 2026-05-06 18:14 | 41.29136 | 2.09531 | 17 ft | 25 kts | 65° |
| 2026-05-06 18:14 | 41.29215 | 2.09762 | 17 ft | 30 kts | 65° |
| 2026-05-06 18:14 | 41.29314 | 2.10007 | 17 ft | 28 kts | 69° |
| 2026-05-06 18:14 | 41.29367 | 2.10232 | 15 ft | 14 kts | 116° |
| 2026-05-06 18:15 | 41.29285 | 2.10296 | 13 ft | 15 kts | 157° |
| 2026-05-06 18:15 | 41.29204 | 2.10298 | 15 ft | 6 kts | 253° |
| 2026-05-06 18:15 | 41.29185 | 2.10221 | 18 ft | 11 kts | 244° |
| 2026-05-06 18:15 | 41.29097 | 2.09966 | 21 ft | 67 kts | 245° |
| 2026-05-06 18:16 | 41.28799 | 2.09097 | 20 ft | 136 kts | 245° |
| 2026-05-06 18:16 | 41.28372 | 2.07819 | 430 ft | 152 kts | 244° |
| 2026-05-06 18:16 | 41.27735 | 2.06731 | 1087 ft | 153 kts | 208° |
| 2026-05-06 18:16 | 41.26678 | 2.06560 | 1663 ft | 162 kts | 175° |
| 2026-05-06 18:17 | 41.25485 | 2.06661 | 2136 ft | 180 kts | 181° |
| 2026-05-06 18:17 | 41.24174 | 2.06591 | 2622 ft | 198 kts | 187° |
| 2026-05-06 18:17 | 41.22712 | 2.06412 | 3052 ft | 221 kts | 188° |
| 2026-05-06 18:17 | 41.21192 | 2.06184 | 4003 ft | 219 kts | 191° |
| 2026-05-06 18:18 | 41.19653 | 2.05938 | 4814 ft | 227 kts | 188° |
| 2026-05-06 18:18 | 41.18079 | 2.05716 | 5626 ft | 233 kts | 188° |
| 2026-05-06 18:18 | 41.16407 | 2.05538 | 6348 ft | 247 kts | 185° |
| 2026-05-06 18:18 | 41.14654 | 2.05445 | 7100 ft | 256 kts | 184° |
| 2026-05-06 18:19 | 41.12861 | 2.05381 | 8035 ft | 259 kts | 184° |
| 2026-05-06 18:19 | 41.11075 | 2.05322 | 8987 ft | 261 kts | 184° |
| 2026-05-06 18:19 | 41.09251 | 2.05257 | 9941 ft | 264 kts | 184° |
| 2026-05-06 18:19 | 41.07373 | 2.05306 | 10561 ft | 282 kts | 171° |
| 2026-05-06 18:20 | 41.05505 | 2.06398 | 10898 ft | 311 kts | 142° |
| 2026-05-06 18:20 | 41.04164 | 2.08756 | 11219 ft | 337 kts | 112° |
| 2026-05-06 18:20 | 41.03787 | 2.11893 | 11485 ft | 359 kts | 84° |
| 2026-05-06 18:20 | 41.04517 | 2.15108 | 11912 ft | 372 kts | 61° |
| 2026-05-06 18:21 | 41.05939 | 2.17990 | 12624 ft | 376 kts | 50° |
| 2026-05-06 18:21 | 41.07667 | 2.20628 | 13381 ft | 380 kts | 45° |
| 2026-05-06 18:21 | 41.09469 | 2.23159 | 14073 ft | 385 kts | 45° |
| 2026-05-06 18:21 | 41.11324 | 2.25828 | 14728 ft | 391 kts | 46° |
| 2026-05-06 18:22 | 41.13110 | 2.28585 | 15356 ft | 397 kts | 49° |
| 2026-05-06 18:22 | 41.14826 | 2.31430 | 15962 ft | 403 kts | 50° |
| 2026-05-06 18:22 | 41.16538 | 2.34421 | 16567 ft | 409 kts | 51° |
| 2026-05-06 18:22 | 41.18243 | 2.37482 | 17169 ft | 416 kts | 52° |
| 2026-05-06 18:23 | 41.19964 | 2.40593 | 17767 ft | 421 kts | 51° |
| 2026-05-06 18:23 | 41.21726 | 2.43755 | 18346 ft | 427 kts | 51° |
| 2026-05-06 18:23 | 41.23516 | 2.46935 | 18864 ft | 433 kts | 51° |
| 2026-05-06 18:23 | 41.25340 | 2.50144 | 19392 ft | 437 kts | 51° |
| 2026-05-06 18:24 | 41.27188 | 2.53381 | 19903 ft | 442 kts | 51° |
| 2026-05-06 18:24 | 41.29057 | 2.56657 | 20417 ft | 447 kts | 51° |
| 2026-05-06 18:24 | 41.30941 | 2.59970 | 20912 ft | 451 kts | 51° |
| 2026-05-06 18:24 | 41.32840 | 2.63320 | 21431 ft | 455 kts | 51° |
| 2026-05-06 18:25 | 41.34752 | 2.66697 | 21922 ft | 459 kts | 51° |
| 2026-05-06 18:25 | 41.36664 | 2.70076 | 22338 ft | 465 kts | 51° |
| 2026-05-06 18:25 | 41.38618 | 2.73531 | 22762 ft | 470 kts | 51° |
| 2026-05-06 18:25 | 41.40598 | 2.77033 | 23200 ft | 474 kts | 51° |
| 2026-05-06 18:26 | 41.42590 | 2.80567 | 23612 ft | 478 kts | 51° |
| 2026-05-06 18:26 | 41.44592 | 2.84130 | 23982 ft | 482 kts | 51° |
| 2026-05-06 18:26 | 41.46604 | 2.87719 | 24362 ft | 485 kts | 51° |
| 2026-05-06 18:26 | 41.48633 | 2.91345 | 24746 ft | 489 kts | 51° |
| 2026-05-06 18:27 | 41.50679 | 2.95000 | 25118 ft | 492 kts | 51° |
| 2026-05-06 18:27 | 41.52713 | 2.98632 | 25508 ft | 495 kts | 51° |
| 2026-05-06 18:27 | 41.54778 | 3.02323 | 25903 ft | 497 kts | 51° |
| 2026-05-06 18:27 | 41.56859 | 3.06046 | 26284 ft | 500 kts | 51° |
| 2026-05-06 18:28 | 41.58949 | 3.09789 | 26568 ft | 505 kts | 51° |
| 2026-05-06 18:28 | 41.61061 | 3.13575 | 26885 ft | 508 kts | 52° |
| 2026-05-06 18:28 | 41.63180 | 3.17380 | 27215 ft | 511 kts | 52° |
| 2026-05-06 18:28 | 41.65286 | 3.21167 | 27551 ft | 514 kts | 52° |
| 2026-05-06 18:29 | 41.67427 | 3.25021 | 27878 ft | 517 kts | 52° |
| 2026-05-06 18:29 | 41.69579 | 3.28906 | 28203 ft | 520 kts | 52° |
| 2026-05-06 18:29 | 41.71735 | 3.32812 | 28514 ft | 522 kts | 52° |
| 2026-05-06 18:29 | 41.73660 | 3.36893 | 28860 ft | 526 kts | 61° |
| 2026-05-06 18:30 | 41.75237 | 3.41339 | 29259 ft | 526 kts | 66° |
| 2026-05-06 18:30 | 41.76718 | 3.45813 | 29739 ft | 525 kts | 66° |
| 2026-05-06 18:30 | 41.78204 | 3.50289 | 29945 ft | 525 kts | 66° |
| 2026-05-06 18:30 | 41.79687 | 3.54753 | 29976 ft | 522 kts | 66° |
| 2026-05-06 18:31 | 41.82614 | 3.63562 | 29967 ft | 520 kts | 66° |
| 2026-05-06 18:31 | 41.85543 | 3.72428 | 29969 ft | 519 kts | 66° |
| 2026-05-06 18:32 | 41.88457 | 3.81320 | 29952 ft | 519 kts | 66° |
| 2026-05-06 18:32 | 41.91364 | 3.90236 | 29970 ft | 521 kts | 66° |
| 2026-05-06 18:33 | 41.94264 | 3.99109 | 29999 ft | 520 kts | 66° |
| 2026-05-06 18:33 | 41.97167 | 4.08004 | 29986 ft | 519 kts | 67° |
| 2026-05-06 18:34 | 42.01024 | 4.16119 | 29964 ft | 515 kts | 41° |
| 2026-05-06 18:34 | 42.03833 | 4.19052 | 29957 ft | 507 kts | 26° |
| 2026-05-06 18:34 | 42.06929 | 4.21120 | 29937 ft | 502 kts | 20° |
| 2026-05-06 18:35 | 42.13294 | 4.25076 | 29977 ft | 503 kts | 20° |
| 2026-05-06 18:35 | 42.19665 | 4.29060 | 29953 ft | 504 kts | 20° |
| 2026-05-06 18:36 | 42.25992 | 4.33043 | 29944 ft | 504 kts | 20° |
| 2026-05-06 18:36 | 42.32368 | 4.37075 | 29974 ft | 505 kts | 20° |
| 2026-05-06 18:37 | 42.37664 | 4.40430 | 29954 ft | 505 kts | 20° |
| 2026-05-06 18:37 | 42.45074 | 4.45125 | 29937 ft | 505 kts | 20° |
| 2026-05-06 18:38 | 42.51424 | 4.49167 | 29939 ft | 505 kts | 20° |
| 2026-05-06 18:38 | 42.57798 | 4.53230 | 29956 ft | 506 kts | 20° |
| 2026-05-06 18:39 | 42.64180 | 4.57305 | 29939 ft | 505 kts | 20° |
| 2026-05-06 18:40 | 42.73709 | 4.63409 | 29934 ft | 506 kts | 21° |
| 2026-05-06 18:40 | 42.80103 | 4.67514 | 29934 ft | 507 kts | 21° |
| 2026-05-06 18:41 | 42.86476 | 4.71611 | 29925 ft | 507 kts | 21° |
| 2026-05-06 18:41 | 42.92859 | 4.75730 | 29951 ft | 507 kts | 21° |
| 2026-05-06 18:42 | 42.99243 | 4.79861 | 29933 ft | 508 kts | 21° |
| 2026-05-06 18:42 | 43.05583 | 4.83977 | 29927 ft | 508 kts | 21° |
| 2026-05-06 18:43 | 43.11976 | 4.88122 | 29924 ft | 508 kts | 21° |
| 2026-05-06 18:43 | 43.18365 | 4.92278 | 29930 ft | 508 kts | 21° |
| 2026-05-06 18:44 | 43.24749 | 4.96447 | 29910 ft | 509 kts | 21° |
| 2026-05-06 18:44 | 43.31161 | 5.00637 | 29922 ft | 510 kts | 21° |
| 2026-05-06 18:45 | 43.37565 | 5.04841 | 29940 ft | 510 kts | 21° |
| 2026-05-06 18:45 | 43.43981 | 5.09060 | 29928 ft | 510 kts | 21° |
| 2026-05-06 18:46 | 43.50386 | 5.13285 | 29925 ft | 510 kts | 21° |
| 2026-05-06 18:46 | 43.56753 | 5.17487 | 29934 ft | 511 kts | 21° |
| 2026-05-06 18:47 | 43.63170 | 5.21731 | 29898 ft | 511 kts | 21° |
| 2026-05-06 18:47 | 43.69585 | 5.25989 | 29900 ft | 511 kts | 21° |
| 2026-05-06 18:48 | 43.75991 | 5.30248 | 29926 ft | 511 kts | 21° |
| 2026-05-06 18:48 | 43.82399 | 5.34518 | 29886 ft | 510 kts | 21° |
| 2026-05-06 18:49 | 43.88799 | 5.38802 | 29896 ft | 511 kts | 22° |
| 2026-05-06 18:49 | 43.95213 | 5.43104 | 29921 ft | 512 kts | 22° |
| 2026-05-06 18:50 | 44.01588 | 5.47381 | 29906 ft | 512 kts | 22° |
| 2026-05-06 18:50 | 44.08000 | 5.51696 | 29907 ft | 512 kts | 22° |
| 2026-05-06 18:51 | 44.14406 | 5.56015 | 29945 ft | 510 kts | 22° |
| 2026-05-06 18:51 | 44.20777 | 5.60325 | 29942 ft | 509 kts | 22° |
| 2026-05-06 18:52 | 44.27139 | 5.64647 | 29939 ft | 508 kts | 22° |
| 2026-05-06 18:52 | 44.32404 | 5.68232 | 29965 ft | 506 kts | 22° |
| 2026-05-06 18:53 | 44.38714 | 5.72530 | 29931 ft | 504 kts | 22° |
| 2026-05-06 18:53 | 44.46049 | 5.77526 | 29908 ft | 505 kts | 22° |
| 2026-05-06 18:54 | 44.51352 | 5.81155 | 29931 ft | 507 kts | 22° |
| 2026-05-06 18:54 | 44.57642 | 5.85480 | 29924 ft | 506 kts | 22° |
| 2026-05-06 18:55 | 44.63973 | 5.89836 | 29932 ft | 507 kts | 22° |
| 2026-05-06 18:55 | 44.70299 | 5.94175 | 29936 ft | 505 kts | 22° |
| 2026-05-06 18:56 | 44.76618 | 5.98537 | 29932 ft | 505 kts | 23° |
| 2026-05-06 18:56 | 44.82926 | 6.02917 | 29940 ft | 506 kts | 23° |
| 2026-05-06 18:57 | 44.89230 | 6.07295 | 29976 ft | 505 kts | 23° |
| 2026-05-06 18:57 | 44.95529 | 6.11676 | 29930 ft | 504 kts | 23° |
| 2026-05-06 18:58 | 45.01785 | 6.16047 | 29927 ft | 506 kts | 23° |
| 2026-05-06 18:58 | 45.08095 | 6.20471 | 29947 ft | 507 kts | 24° |
| 2026-05-06 18:59 | 45.14411 | 6.24904 | 29942 ft | 506 kts | 24° |
| 2026-05-06 18:59 | 45.20728 | 6.29342 | 29940 ft | 507 kts | 24° |
| 2026-05-06 19:00 | 45.27025 | 6.33776 | 29970 ft | 504 kts | 24° |
| 2026-05-06 19:00 | 45.33293 | 6.38198 | 29977 ft | 502 kts | 24° |
| 2026-05-06 19:01 | 45.39535 | 6.42617 | 29969 ft | 501 kts | 24° |
| 2026-05-06 19:01 | 45.45739 | 6.47027 | 29975 ft | 499 kts | 24° |
| 2026-05-06 19:02 | 45.51967 | 6.51455 | 29968 ft | 498 kts | 24° |
| 2026-05-06 19:02 | 45.58130 | 6.55866 | 29960 ft | 498 kts | 24° |
| 2026-05-06 19:03 | 45.64311 | 6.60295 | 29987 ft | 495 kts | 24° |
| 2026-05-06 19:03 | 45.70459 | 6.64705 | 29984 ft | 493 kts | 24° |
| 2026-05-06 19:04 | 45.76593 | 6.69122 | 29934 ft | 492 kts | 25° |
| 2026-05-06 19:04 | 45.82680 | 6.73482 | 29945 ft | 493 kts | 24° |
| 2026-05-06 19:05 | 45.88914 | 6.77604 | 29940 ft | 493 kts | 22° |
| 2026-05-06 19:05 | 45.95205 | 6.81584 | 29935 ft | 493 kts | 22° |
| 2026-05-06 19:06 | 46.01455 | 6.85605 | 29944 ft | 493 kts | 23° |
| 2026-05-06 19:06 | 46.07654 | 6.89686 | 29943 ft | 492 kts | 23° |
| 2026-05-06 19:07 | 46.13879 | 6.93806 | 29939 ft | 491 kts | 23° |
| 2026-05-06 19:07 | 46.20068 | 6.97895 | 29954 ft | 490 kts | 24° |
| 2026-05-06 19:08 | 46.26262 | 7.01998 | 29953 ft | 489 kts | 24° |
| 2026-05-06 19:08 | 46.32453 | 7.06108 | 29936 ft | 489 kts | 24° |
| 2026-05-06 19:08 | 46.35550 | 7.08164 | 29650 ft | 489 kts | 24° |
| 2026-05-06 19:09 | 46.38643 | 7.10218 | 29336 ft | 488 kts | 24° |
| 2026-05-06 19:09 | 46.41732 | 7.12272 | 29032 ft | 487 kts | 24° |
| 2026-05-06 19:09 | 46.44818 | 7.14326 | 28719 ft | 487 kts | 24° |
| 2026-05-06 19:09 | 46.47893 | 7.16378 | 28405 ft | 487 kts | 24° |
| 2026-05-06 19:10 | 46.50938 | 7.18415 | 28104 ft | 487 kts | 24° |
| 2026-05-06 19:10 | 46.54010 | 7.20475 | 27805 ft | 486 kts | 24° |
| 2026-05-06 19:10 | 46.57082 | 7.22533 | 27509 ft | 486 kts | 24° |
| 2026-05-06 19:10 | 46.60156 | 7.24595 | 27212 ft | 486 kts | 24° |
| 2026-05-06 19:11 | 46.63227 | 7.26654 | 26925 ft | 486 kts | 24° |
| 2026-05-06 19:11 | 46.66303 | 7.28723 | 26629 ft | 486 kts | 24° |
| 2026-05-06 19:11 | 46.69374 | 7.30797 | 26342 ft | 486 kts | 24° |
| 2026-05-06 19:11 | 46.72443 | 7.32874 | 26041 ft | 487 kts | 24° |
| 2026-05-06 19:12 | 46.75525 | 7.34959 | 25756 ft | 490 kts | 25° |
| 2026-05-06 19:12 | 46.78624 | 7.37055 | 25478 ft | 490 kts | 25° |
| 2026-05-06 19:12 | 46.81707 | 7.39205 | 25202 ft | 490 kts | 28° |
| 2026-05-06 19:12 | 46.84557 | 7.41905 | 24935 ft | 489 kts | 38° |
| 2026-05-06 19:13 | 46.87038 | 7.45203 | 24666 ft | 488 kts | 48° |
| 2026-05-06 19:13 | 46.89200 | 7.49026 | 24400 ft | 487 kts | 53° |
| 2026-05-06 19:13 | 46.91308 | 7.52912 | 24154 ft | 487 kts | 52° |
| 2026-05-06 19:13 | 46.93577 | 7.56581 | 23881 ft | 486 kts | 41° |
| 2026-05-06 19:14 | 46.96419 | 7.59221 | 23626 ft | 485 kts | 24° |
| 2026-05-06 19:14 | 46.99656 | 7.60547 | 23337 ft | 482 kts | 6° |
| 2026-05-06 19:14 | 47.02985 | 7.60449 | 23028 ft | 478 kts | 349° |
| 2026-05-06 19:14 | 47.06102 | 7.59005 | 22721 ft | 473 kts | 332° |
| 2026-05-06 19:15 | 47.08812 | 7.56357 | 22425 ft | 467 kts | 317° |
| 2026-05-06 19:15 | 47.11268 | 7.53252 | 22128 ft | 465 kts | 316° |
| 2026-05-06 19:15 | 47.13701 | 7.50143 | 21831 ft | 463 kts | 316° |
| 2026-05-06 19:15 | 47.16122 | 7.47035 | 21518 ft | 461 kts | 316° |
| 2026-05-06 19:16 | 47.18538 | 7.43934 | 21243 ft | 460 kts | 317° |
| 2026-05-06 19:16 | 47.20941 | 7.40855 | 20956 ft | 456 kts | 317° |
| 2026-05-06 19:16 | 47.23326 | 7.37798 | 20672 ft | 453 kts | 317° |
| 2026-05-06 19:16 | 47.25698 | 7.34752 | 20386 ft | 452 kts | 316° |
| 2026-05-06 19:17 | 47.28065 | 7.31707 | 20108 ft | 450 kts | 316° |
| 2026-05-06 19:17 | 47.30409 | 7.28692 | 19837 ft | 447 kts | 317° |
| 2026-05-06 19:17 | 47.32746 | 7.25688 | 19565 ft | 444 kts | 317° |
| 2026-05-06 19:17 | 47.35078 | 7.22690 | 19295 ft | 443 kts | 316° |
| 2026-05-06 19:18 | 47.37354 | 7.19757 | 19030 ft | 435 kts | 317° |
| 2026-05-06 19:18 | 47.39520 | 7.16764 | 18762 ft | 417 kts | 310° |
| 2026-05-06 19:18 | 47.41215 | 7.13395 | 18495 ft | 402 kts | 299° |
| 2026-05-06 19:18 | 47.42443 | 7.09749 | 18230 ft | 390 kts | 292° |
| 2026-05-06 19:19 | 47.43536 | 7.06147 | 17872 ft | 381 kts | 293° |
| 2026-05-06 19:19 | 47.44613 | 7.02611 | 17463 ft | 373 kts | 293° |
| 2026-05-06 19:19 | 47.45669 | 6.99146 | 17063 ft | 366 kts | 292° |
| 2026-05-06 19:19 | 47.46721 | 6.95771 | 16669 ft | 359 kts | 296° |
| 2026-05-06 19:20 | 47.48283 | 6.92948 | 16273 ft | 357 kts | 321° |
| 2026-05-06 19:20 | 47.50497 | 6.91410 | 16168 ft | 346 kts | 341° |
| 2026-05-06 19:20 | 47.52753 | 6.90424 | 16164 ft | 331 kts | 343° |
| 2026-05-06 19:20 | 47.54947 | 6.89653 | 16159 ft | 317 kts | 346° |
| 2026-05-06 19:21 | 47.57074 | 6.89075 | 16156 ft | 304 kts | 349° |
| 2026-05-06 19:21 | 47.59132 | 6.88681 | 16153 ft | 293 kts | 352° |
| 2026-05-06 19:21 | 47.61142 | 6.88443 | 16155 ft | 288 kts | 355° |
| 2026-05-06 19:21 | 47.63119 | 6.88426 | 16151 ft | 289 kts | 6° |
| 2026-05-06 19:22 | 47.65017 | 6.89434 | 16151 ft | 293 kts | 33° |
| 2026-05-06 19:22 | 47.66448 | 6.91539 | 16150 ft | 291 kts | 59° |
| 2026-05-06 19:22 | 47.67160 | 6.94322 | 15963 ft | 289 kts | 86° |
| 2026-05-06 19:22 | 47.67018 | 6.97275 | 15592 ft | 290 kts | 110° |
| 2026-05-06 19:23 | 47.66176 | 6.99962 | 15083 ft | 286 kts | 118° |
| 2026-05-06 19:23 | 47.65569 | 7.02771 | 14588 ft | 287 kts | 99° |
| 2026-05-06 19:23 | 47.65352 | 7.05721 | 14102 ft | 287 kts | 97° |
| 2026-05-06 19:23 | 47.65177 | 7.08667 | 13601 ft | 286 kts | 96° |
| 2026-05-06 19:24 | 47.65123 | 7.11582 | 13380 ft | 273 kts | 92° |
| 2026-05-06 19:24 | 47.64934 | 7.14257 | 13235 ft | 258 kts | 111° |
| 2026-05-06 19:24 | 47.64090 | 7.16533 | 12966 ft | 250 kts | 134° |
| 2026-05-06 19:24 | 47.62773 | 7.18126 | 12734 ft | 242 kts | 155° |
| 2026-05-06 19:25 | 47.61170 | 7.18898 | 12264 ft | 242 kts | 177° |
| 2026-05-06 19:25 | 47.59515 | 7.18704 | 11759 ft | 244 kts | 199° |
| 2026-05-06 19:25 | 47.58000 | 7.17561 | 11255 ft | 247 kts | 221° |
| 2026-05-06 19:25 | 47.56892 | 7.15616 | 10738 ft | 250 kts | 242° |
| 2026-05-06 19:26 | 47.56394 | 7.13162 | 10320 ft | 249 kts | 264° |
| 2026-05-06 19:26 | 47.56407 | 7.10600 | 9873 ft | 249 kts | 272° |
| 2026-05-06 19:26 | 47.56525 | 7.08046 | 9370 ft | 248 kts | 274° |
| 2026-05-06 19:26 | 47.56674 | 7.05514 | 8897 ft | 246 kts | 274° |
| 2026-05-06 19:27 | 47.56826 | 7.03004 | 8435 ft | 243 kts | 274° |
| 2026-05-06 19:27 | 47.56980 | 7.00551 | 8221 ft | 232 kts | 276° |
| 2026-05-06 19:27 | 47.57456 | 6.98367 | 8215 ft | 217 kts | 295° |
| 2026-05-06 19:27 | 47.58360 | 6.96612 | 8210 ft | 216 kts | 313° |
| 2026-05-06 19:28 | 47.59630 | 6.95382 | 7953 ft | 221 kts | 334° |
| 2026-05-06 19:28 | 47.61143 | 6.94905 | 7671 ft | 225 kts | 355° |
| 2026-05-06 19:28 | 47.62699 | 6.95271 | 7392 ft | 230 kts | 17° |
| 2026-05-06 19:28 | 47.64086 | 6.96479 | 7120 ft | 234 kts | 40° |
| 2026-05-06 19:29 | 47.65087 | 6.98380 | 6848 ft | 236 kts | 63° |
| 2026-05-06 19:29 | 47.65546 | 7.00698 | 6575 ft | 235 kts | 87° |
| 2026-05-06 19:29 | 47.65542 | 7.03085 | 6319 ft | 234 kts | 96° |
| 2026-05-06 19:29 | 47.65430 | 7.05489 | 6031 ft | 234 kts | 97° |
| 2026-05-06 19:30 | 47.65289 | 7.07886 | 5749 ft | 234 kts | 98° |
| 2026-05-06 19:30 | 47.65143 | 7.10281 | 5465 ft | 234 kts | 98° |
| 2026-05-06 19:30 | 47.65246 | 7.12804 | 5347 ft | 255 kts | 75° |
| 2026-05-06 19:30 | 47.66073 | 7.15131 | 5343 ft | 258 kts | 50° |
| 2026-05-06 19:31 | 47.67231 | 7.17178 | 5293 ft | 259 kts | 50° |
| 2026-05-06 19:31 | 47.68350 | 7.19251 | 4981 ft | 257 kts | 50° |
| 2026-05-06 19:31 | 47.70542 | 7.23416 | 4290 ft | 255 kts | 51° |
| 2026-05-06 19:32 | 47.71632 | 7.25490 | 4047 ft | 254 kts | 50° |
| 2026-05-06 19:32 | 47.72719 | 7.27555 | 4037 ft | 254 kts | 50° |
| 2026-05-06 19:32 | 47.73811 | 7.29620 | 4041 ft | 254 kts | 50° |
| 2026-05-06 19:32 | 47.74883 | 7.31730 | 4038 ft | 261 kts | 57° |
| 2026-05-06 19:33 | 47.75578 | 7.34242 | 4037 ft | 265 kts | 78° |
| 2026-05-06 19:33 | 47.75684 | 7.36966 | 4017 ft | 264 kts | 99° |
| 2026-05-06 19:33 | 47.75200 | 7.39555 | 3866 ft | 257 kts | 119° |
| 2026-05-06 19:33 | 47.74230 | 7.41686 | 3615 ft | 244 kts | 139° |
| 2026-05-06 19:34 | 47.72924 | 7.43180 | 3338 ft | 230 kts | 158° |
| 2026-05-06 19:34 | 47.71521 | 7.44174 | 3053 ft | 219 kts | 161° |
| 2026-05-06 19:34 | 47.70168 | 7.45122 | 2762 ft | 212 kts | 161° |
| 2026-05-06 19:34 | 47.68874 | 7.46027 | 2484 ft | 205 kts | 161° |
| 2026-05-06 19:35 | 47.67596 | 7.46920 | 2243 ft | 201 kts | 160° |
| 2026-05-06 19:35 | 47.66361 | 7.47783 | 2055 ft | 190 kts | 160° |
| 2026-05-06 19:35 | 47.65230 | 7.48576 | 2040 ft | 169 kts | 161° |
| 2026-05-06 19:35 | 47.64191 | 7.49306 | 2042 ft | 163 kts | 160° |
| 2026-05-06 19:36 | 47.63386 | 7.50505 | 2034 ft | 171 kts | 124° |
| 2026-05-06 19:36 | 47.62895 | 7.52113 | 2037 ft | 171 kts | 116° |
| 2026-05-06 19:36 | 47.62457 | 7.53747 | 2043 ft | 170 kts | 115° |
| 2026-05-06 19:36 | 47.62229 | 7.55463 | 2041 ft | 176 kts | 88° |
| 2026-05-06 19:37 | 47.62440 | 7.57206 | 2018 ft | 164 kts | 77° |
| 2026-05-06 19:37 | 47.62618 | 7.58840 | 2006 ft | 157 kts | 90° |
| 2026-05-06 19:37 | 47.62126 | 7.60210 | 2045 ft | 155 kts | 141° |
| 2026-05-06 19:37 | 47.61464 | 7.60577 | 2052 ft | 155 kts | 174° |
| 2026-05-06 19:38 | 47.60187 | 7.59739 | 2076 ft | 155 kts | 221° |
| 2026-05-06 19:38 | 47.59746 | 7.58313 | 1965 ft | 151 kts | 263° |
| 2026-05-06 19:38 | 47.59624 | 7.56807 | 1639 ft | 145 kts | 261° |
| 2026-05-06 19:38 | 47.59373 | 7.55368 | 1242 ft | 143 kts | 257° |
| 2026-05-06 19:39 | 47.59157 | 7.53978 | 929 ft | 136 kts | 257° |
| 2026-05-06 19:39 | 47.58956 | 7.52715 | 889 ft | 105 kts | 257° |
| 2026-05-06 19:39 | 47.58848 | 7.52036 | 895 ft | 51 kts | 256° |
| 2026-05-06 19:39 | 47.58825 | 7.51698 | 892 ft | 20 kts | 299° |
| 2026-05-06 19:40 | 47.58881 | 7.51683 | 890 ft | 9 kts | 344° |
| 2026-05-06 19:40 | 47.58946 | 7.51678 | 890 ft | 10 kts | 17° |
| 2026-05-06 19:40 | 47.59005 | 7.51755 | 890 ft | 12 kts | 45° |
| 2026-05-06 19:40 | 47.59067 | 7.51851 | 890 ft | 13 kts | 46° |
| 2026-05-06 19:41 | 47.59135 | 7.51956 | 890 ft | 15 kts | 46° |
| 2026-05-06 19:41 | 47.59211 | 7.52068 | 890 ft | 16 kts | 45° |
| 2026-05-06 19:41 | 47.59279 | 7.52201 | 890 ft | 17 kts | 66° |
| 2026-05-06 19:41 | 47.59329 | 7.52363 | 890 ft | 18 kts | 64° |
| 2026-05-06 19:42 | 47.59360 | 7.52452 | 890 ft | 9 kts | 63° |
| 2026-05-06 19:42 | 47.59388 | 7.52539 | 890 ft | 10 kts | 66° |
| 2026-05-06 19:42 | 47.59403 | 7.52643 | 890 ft | 9 kts | 60° |
| 2026-05-06 19:42 | 47.59442 | 7.52708 | 890 ft | 10 kts | 70° |
| 2026-05-06 19:43 | 47.59470 | 7.52808 | 890 ft | 11 kts | 65° |
| 2026-05-06 19:43 | 47.59534 | 7.52842 | 890 ft | 11 kts | 339° |
| 2026-05-06 19:43 | 47.59578 | 7.52809 | 890 ft | 11 kts | 352° |
| 2026-05-06 19:43 | 47.59628 | 7.52871 | 890 ft | 10 kts | 70° |
| 2026-05-06 19:44 | 47.59663 | 7.52986 | 890 ft | 15 kts | 65° |
| 2026-05-06 19:44 | 47.59705 | 7.53110 | 890 ft | 9 kts | 40° |
| 2026-05-06 19:44 | 47.59771 | 7.53079 | 890 ft | 13 kts | 333° |
| 2026-05-06 19:44 | 47.59818 | 7.53115 | 890 ft | 10 kts | 69° |
| 2026-05-06 19:45 | 47.59827 | 7.53155 | 890 ft | 0 kts | 62° |